CheckWX is a tool to help pilots better visualize weather data.  It is not intended as a substitute for an official pre-flight weather briefing.

00:46:47 UTC

22N METAR
Jake Arner Memorial Airport
Lehighton, Pennsylvania, USA
Current

31 mins ago

K22N 210016Z AUTO 17008G14KT 10SM SCT060 18/07 A2975 RMK AO2
Observed
Apr-21 @ 00:16 UTC
Wind
  • 170° at 8 KTS
  • Gusting to 14 KTS
Visibility
10 SM
Flight Rules
VFR
Cloud Levels
  • Scattered at 6,000' AGL
Temperature
18°C / 64°F
Dewpoint
C / 45°F
Humidity
49%
Altimeter
29.75" Hg
Pressure
1007.42 hPa
Previous

52 mins ago

K22N 202355Z AUTO 12007KT 088V148 10SM CLR 19/07 A2973 RMK AO2
Observed
Apr-20 @ 23:55 UTC
Wind
  • 120° at 7 KTS
Visibility
10 SM
Flight Rules
VFR
Cloud Levels
  • Clear skies
Temperature
19°C / 66°F
Dewpoint
C / 45°F
Humidity
46%
Altimeter
29.73" Hg
Pressure
1006.82 hPa
Previous

1 hour ago

K22N 202336Z AUTO 14009G16KT 10SM CLR 20/06 A2972 RMK AO2
Observed
Apr-20 @ 23:36 UTC
Wind
  • 140° at 9 KTS
  • Gusting to 16 KTS
Visibility
10 SM
Flight Rules
VFR
Cloud Levels
  • Clear skies
Temperature
20°C / 68°F
Dewpoint
C / 43°F
Humidity
40%
Altimeter
29.72" Hg
Pressure
1006.42 hPa